Estación de Maule
Ultimos registro cada 15 minutos 40
| N° | Estación | Fecha / Hora | Temperatura | Humedad | Lluvia | Velocidad | Dirección | Radiación | Presion |
| 40 | Maule | 10-05-2026 09:45 | 9,7 | 75 | 0 | 2,2 | 209 | 362 | 1017,3 |
| 39 | Maule | 10-05-2026 09:30 | 8,9 | 78 | 0 | 1,8 | 178 | 322 | 1017,5 |
| 38 | Maule | 10-05-2026 09:15 | 8,3 | 79 | 0 | 0,4 | 151 | 279 | 1017,4 |
| 37 | Maule | 10-05-2026 09:00 | 7,7 | 82 | 0 | 0,4 | 163 | 236 | 1017,2 |
| 36 | Maule | 10-05-2026 08:45 | 7 | 83 | 0 | 0,4 | 176 | 109 | 1017,5 |
| 35 | Maule | 10-05-2026 08:30 | 6,1 | 86 | 0 | 0 | 176 | 105 | 1017,3 |
| 34 | Maule | 10-05-2026 08:15 | 4,3 | 93 | 0 | 0 | 176 | 91 | 1017 |
| 33 | Maule | 10-05-2026 08:00 | 2,7 | 93 | 0 | 0 | 176 | 47 | 1017 |
| 32 | Maule | 10-05-2026 07:45 | 2,4 | 91 | 0 | 0 | 176 | 14 | 1017 |
| 31 | Maule | 10-05-2026 07:30 | 2,7 | 91 | 0 | 0 | 176 | 7 | 1016,9 |
| 30 | Maule | 10-05-2026 07:15 | 2,8 | 90 | 0 | 0 | 176 | 0 | 1016,9 |
| 29 | Maule | 10-05-2026 07:00 | 3,4 | 89 | 0 | 0 | 176 | 0 | 1016,8 |
| 28 | Maule | 10-05-2026 06:45 | 3,8 | 90 | 0 | 0 | 176 | 0 | 1016,8 |
| 27 | Maule | 10-05-2026 06:30 | 4 | 89 | 0 | 0 | 176 | 0 | 1016,8 |
| 26 | Maule | 10-05-2026 06:15 | 4,3 | 87 | 0 | 0 | 176 | 0 | 1016,8 |
| 25 | Maule | 10-05-2026 06:00 | 4,6 | 87 | 0 | 0 | 176 | 0 | 1016,8 |
| 24 | Maule | 10-05-2026 05:45 | 4,8 | 87 | 0 | 0 | 176 | 0 | 1016,7 |
| 23 | Maule | 10-05-2026 05:30 | 4,6 | 88 | 0 | 0,4 | 176 | 0 | 1016,7 |
| 22 | Maule | 10-05-2026 05:15 | 4,3 | 88 | 0 | 0,9 | 174 | 0 | 1016,8 |
| 21 | Maule | 10-05-2026 05:00 | 4,6 | 87 | 0 | 0 | 174 | 0 | 1016,7 |
| 20 | Maule | 10-05-2026 04:45 | 4,3 | 88 | 0 | 0,9 | 185 | 0 | 1016,6 |
| 19 | Maule | 10-05-2026 04:30 | 4,3 | 87 | 0 | 0 | 190 | 0 | 1016,6 |
| 18 | Maule | 10-05-2026 04:15 | 4,7 | 86 | 0 | 0 | 190 | 0 | 1016,5 |
| 17 | Maule | 10-05-2026 04:00 | 5 | 87 | 0 | 0 | 190 | 0 | 1016,6 |
| 16 | Maule | 10-05-2026 03:45 | 5,3 | 85 | 0 | 0 | 190 | 0 | 1016,5 |
| 15 | Maule | 10-05-2026 03:30 | 5,3 | 86 | 0 | 0 | 190 | 0 | 1016,5 |
| 14 | Maule | 10-05-2026 03:15 | 5,1 | 86 | 0 | 0 | 190 | 0 | 1016,6 |
| 13 | Maule | 10-05-2026 03:00 | 5,5 | 84 | 0 | 0 | 190 | 0 | 1016,7 |
| 12 | Maule | 10-05-2026 02:45 | 5,8 | 84 | 0 | 0 | 190 | 0 | 1016,6 |
| 11 | Maule | 10-05-2026 02:30 | 6,1 | 83 | 0 | 0 | 190 | 0 | 1016,8 |
| 10 | Maule | 10-05-2026 02:15 | 6,5 | 81 | 0 | 0 | 190 | 0 | 1017 |
| 9 | Maule | 10-05-2026 02:00 | 6,8 | 81 | 0 | 0 | 190 | 0 | 1017,1 |
| 8 | Maule | 10-05-2026 01:45 | 7,1 | 80 | 0 | 0,4 | 190 | 0 | 1017,2 |
| 7 | Maule | 10-05-2026 01:30 | 7,4 | 80 | 0 | 0 | 190 | 0 | 1017,2 |
| 6 | Maule | 10-05-2026 01:15 | 7,4 | 80 | 0 | 0 | 195 | 0 | 1017 |
| 5 | Maule | 10-05-2026 01:00 | 7,4 | 81 | 0 | 0 | 190 | 0 | 1017,1 |
| 4 | Maule | 10-05-2026 00:45 | 7,5 | 81 | 0 | 0 | 185 | 0 | 1017,3 |
| 3 | Maule | 10-05-2026 00:30 | 7,7 | 81 | 0 | 0,9 | 185 | 0 | 1017,4 |
| 2 | Maule | 10-05-2026 00:15 | 7,9 | 80 | 0 | 0,4 | 190 | 0 | 1017,4 |
| 1 | Maule | 10-05-2026 00:00 | 8,3 | 80 | 0 | 0 | 190 | 0 | 1017,5 |